AirNav   ProFlight Series 2 Aviation Headset
 
 282 users online  

9SD9 Weelborg Airport
Dell Rapids, South Dakota, USA

GOING TO DELL RAPIDS?


FAA INFORMATION EFFECTIVE 18 JUNE 2020

Location

FAA Identifier: 9SD9
Lat/Long: 43-48-23.9040N 096-42-32.1790W
43-48.398400N 096-42.536317W
43.8066400,-96.7089386
(estimated)
Elevation: 1553 ft. / 473 m (estimated)
Variation: 06E (1985)
From city: 2 miles S of DELL RAPIDS, SD
Time zone: UTC -5 (UTC -6 during Standard Time)
Zip code: 57022

Airport Operations

Airport use: Private use. Permission required prior to landing
Activation date: 07/1963
Control tower: no
ARTCC: MINNEAPOLIS CENTER
FSS: HURON FLIGHT SERVICE STATION
Attendance: MON-FRI 0730-1730
Wind indicator: yes
Segmented circle: no

Airport Communications

UNICOM: 122.8
WX ASOS at FSD (14 nm S): PHONE 605-331-7833

Nearby radio navigation aids

VOR radial/distance  VOR name  Freq  Var
FSDr009/9.9SIOUX FALLS VORTAC115.0009E

Airport Services

Parking: hangars
Airframe service: MAJOR
Powerplant service: MAJOR
Bottled oxygen: NONE
Bulk oxygen: NONE

Runway Information

Runway 17/35

Dimensions: 3500 x 70 ft. / 1067 x 21 m
APRXLY 400'EMERG DIRT OVRN ON SOUTH END OF RWY.
Surface: asphalt
Weight bearing capacity: 
Single wheel: 5.0
RUNWAY 17  RUNWAY 35
Traffic pattern: leftleft
Markings: nonenone

Airport Ownership and Management from official FAA records

Ownership: Privately-owned
Owner: WEELBORG BROS, INC.
P.O. BOX 31
DELL RAPIDS, SD 57022-1647
Manager: ROBERTA LUTTMANN
47304 225TH ST
FLANDREAU, SD 57028-1647
Phone (605) 864-1121

Airport Operational Statistics

Aircraft based on the field: 5
Single engine airplanes: 5
    
Aircraft operations: avg 63/day *
63% local general aviation
37% transient general aviation
* for 12-month period ending 20 June 1980

Additional Remarks

CAUTION: NMRS OBSTNS PENT 7:1 TRSN SFC ON WEST EDGE OF RWY 17/35.
50 FT PLINES E OF AND PARALLEL TO RY DSTC APPROX 200 FT.
FOR CD CTC MINNEAPOLIS ARTCC AT 651-463-5588.

Instrument Procedures

There are no published instrument procedures at 9SD9.

Some nearby airports with instrument procedures:

KFSD - Joe Foss Field Airport (14 nm S)
KPQN - Pipestone Municipal Airport (21 nm NE)
KMDS - Madison Municipal Airport (21 nm NW)
KLYV - Quentin Aanenson Field Airport (24 nm SE)
KBKX - Brookings Regional Airport (30 nm N)
 
Loc | Ops | Rwys | IFR | FBO | Links
Com | Nav | Svcs | Stats | Notes

Bismarck Aero Center
AirBoss

 
Area around 9SD9 (Weelborg Airport)
 
Road maps at: MapQuest Bing Google
 
Aerial photo
WARNING: Photo may not be current or correct
Aerial photo of 9SD9 (Weelborg Airport)
Photo by Steve Hamilton

Do you have a better or more recent aerial photo of Weelborg Airport that you would like to share? If so, please send us your photo.

 
Sectional chart

 
Airport distance calculator
Flying to Weelborg Airport? Find the distance to fly.

From to 9SD9

Sunrise and sunset
Times for 14-Jul-2020
 Local
(UTC-5)
 Zulu
(UTC)
Morning civil twilight05:2510:25
Sunrise06:0011:00
Sunset21:0602:06
Evening civil twilight21:4102:41

Current date and time
Zulu (UTC)  14-Jul-2020 08:51:05
Local (UTC-5)  14-Jul-2020 03:51:05
 
METAR
KFSD 
14nm S 
140839Z AUTO 17006KT 10SM FEW075 BKN100 BKN120 23/21 A2982 RMK AO2 LTG DSNT NW-NE RAE39 TSB06E25 P0005 T02330206 $
KPQN 
19nm NE 
140835Z 12008KT 5SM +TSRA 21/17 A2987 RMK AO2 P0001 LTG DSNT ALQDS
KMDS 
21nm NW 
140835Z AUTO 18013KT 10SM VCTS OVC060 20/20 A2986 RMK AO2 LTG DSNT SE AND S
KLYV 
24nm SE 
140835Z AUTO 24014G23KT 10SM -VCTSDZ SCT041 SCT050 BKN070 22/15 A2984 RMK AO2 LTG DSNT N E AND SW
TAF
KFSD 
14nm S 
140807Z 1408/1506 VRB05KT P6SM -SHRA VCTS BKN035CB TEMPO 1408/1409 27015G25KT 5SM -TSRA BR FM141300 36012G25KT P6SM -SHRA VCTS BKN035CB OVC050 FM141800 36010KT P6SM OVC060
NOTAMs
Click for the latest NOTAMs
NOTAMs are issued by the DoD/FAA and will open in a separate window not controlled by AirNav.

 

 
 

Would you like to see your business listed on this page?

 If your business provides an interesting product or service to pilots, flight crews, aircraft, or users of the Weelborg Airport, you should consider listing it here.  To start the listing process, click on the button below
 
Add a business
 

Other Pages about Weelborg Airport

Update a link
 
Copyright © AirNav, LLC. All rights reserved. Privacy Policy  Contact